createdAt,value
2019-04-26T00:01:52.577Z,19.80
2019-04-26T00:04:23.193Z,19.30
2019-04-26T00:06:53.783Z,17.53
2019-04-26T00:09:25.968Z,17.93
2019-04-26T00:11:58.140Z,17.93
2019-04-26T00:14:46.544Z,18.10
2019-04-26T00:17:33.661Z,18.87
2019-04-26T00:20:06.930Z,17.23
2019-04-26T00:22:37.458Z,17.10
2019-04-26T00:25:07.838Z,16.73
2019-04-26T00:27:40.882Z,17.90
2019-04-26T00:30:12.068Z,17.00
2019-04-26T00:32:43.699Z,15.93
2019-04-26T00:35:14.091Z,17.37
2019-04-26T00:37:44.474Z,16.63
2019-04-26T00:40:16.125Z,16.47
2019-04-26T00:42:47.492Z,16.33
2019-04-26T00:45:18.798Z,16.43
2019-04-26T00:47:51.329Z,19.70
2019-04-26T00:50:21.787Z,15.43
2019-04-26T00:52:52.740Z,16.43
2019-04-26T00:55:23.952Z,17.00
2019-04-26T00:57:54.448Z,16.30
2019-04-26T01:00:25.753Z,16.63
2019-04-26T01:02:57.211Z,19.33
2019-04-26T01:05:29.139Z,16.67
2019-04-26T01:07:59.732Z,17.90
2019-04-26T01:10:30.459Z,20.17
2019-04-26T01:13:01.094Z,17.57
2019-04-26T01:15:31.475Z,21.77
2019-04-26T01:18:01.874Z,18.27
2019-04-26T01:20:33.988Z,17.67
2019-04-26T01:23:07.001Z,17.23
2019-04-26T01:25:51.896Z,17.00
2019-04-26T01:28:25.831Z,16.70
2019-04-26T01:30:58.805Z,17.50
2019-04-26T01:33:29.992Z,17.97
2019-04-26T01:36:12.099Z,19.60
2019-04-26T01:38:32.433Z,18.80
2019-04-26T01:41:05.335Z,18.20
2019-04-26T01:43:54.439Z,19.90
2019-04-26T01:46:29.705Z,18.77
2019-04-26T01:49:06.318Z,20.13
2019-04-26T01:51:53.058Z,19.83
2019-04-26T01:54:29.920Z,20.33
2019-04-26T01:57:07.503Z,20.33
2019-04-26T01:59:41.855Z,21.30
2019-04-26T02:02:32.024Z,22.23
2019-04-26T02:05:04.922Z,20.13
2019-04-26T02:07:38.711Z,26.90
2019-04-26T02:10:23.392Z,24.12
2019-04-26T02:12:55.820Z,21.27
2019-04-26T02:15:29.198Z,22.80
2019-04-26T02:18:00.930Z,21.83
2019-04-26T02:20:50.910Z,21.10
2019-04-26T02:23:39.388Z,24.07
2019-04-26T02:26:28.343Z,28.23
2019-04-26T02:28:59.044Z,24.40
2019-04-26T02:31:31.477Z,24.20
2019-04-26T02:34:03.690Z,22.40
2019-04-26T02:36:55.154Z,23.40
2019-04-26T02:39:23.321Z,23.33
2019-04-26T02:41:56.636Z,26.97
2019-04-26T02:44:32.985Z,24.20
2019-04-26T02:47:47.121Z,23.27
2019-04-26T02:50:20.670Z,24.90
2019-04-26T02:52:59.755Z,26.20
2019-04-26T02:55:42.284Z,28.00
2019-04-26T02:58:11.553Z,25.17
2019-04-26T03:00:42.380Z,27.30
2019-04-26T03:03:14.710Z,23.13
2019-04-26T03:05:46.204Z,26.13
2019-04-26T03:08:19.507Z,27.37
2019-04-26T03:10:52.855Z,27.10
2019-04-26T03:13:27.784Z,26.03
2019-04-26T03:16:01.416Z,23.47
2019-04-26T03:18:37.431Z,25.07
2019-04-26T03:21:14.352Z,23.00
2019-04-26T03:23:57.585Z,22.87
2019-04-26T03:26:45.145Z,21.70
2019-04-26T03:29:37.611Z,25.57
2019-04-26T03:32:24.033Z,23.17
2019-04-26T03:35:17.133Z,24.10
2019-04-26T03:38:00.620Z,23.17
2019-04-26T03:40:47.301Z,22.67
2019-04-26T03:43:34.439Z,23.70
2019-04-26T03:46:23.170Z,22.00
2019-04-26T03:49:08.393Z,21.67
2019-04-26T03:51:53.383Z,21.97
2019-04-26T03:54:26.675Z,21.80
2019-04-26T03:57:37.086Z,22.37
2019-04-26T04:00:30.465Z,20.27
2019-04-26T04:03:20.153Z,21.17
2019-04-26T04:05:57.203Z,21.10
2019-04-26T04:08:44.692Z,19.00
2019-04-26T04:11:23.061Z,19.73
2019-04-26T04:14:01.938Z,19.07
2019-04-26T04:16:48.440Z,19.32
2019-04-26T04:20:10.798Z,21.70
2019-04-26T04:23:08.983Z,20.68
2019-04-26T04:25:45.977Z,24.65
2019-04-26T04:28:58.170Z,20.23
2019-04-26T04:31:44.163Z,20.80
2019-04-26T04:34:37.298Z,27.75
2019-04-26T04:37:15.290Z,21.82
2019-04-26T04:40:19.128Z,27.45
2019-04-26T04:43:17.432Z,22.73
2019-04-26T04:46:10.128Z,19.98
2019-04-26T04:49:09.843Z,22.58
2019-04-26T04:51:51.583Z,25.65
2019-04-26T04:54:42.756Z,24.75
2019-04-26T04:57:20.659Z,25.80
2019-04-26T04:59:54.007Z,25.48
2019-04-26T05:03:17.615Z,24.12
2019-04-26T05:06:07.248Z,22.85
2019-04-26T05:08:42.913Z,24.27
2019-04-26T05:11:40.684Z,24.47
2019-04-26T05:14:39.700Z,23.15
2019-04-26T05:17:20.396Z,22.65
2019-04-26T05:20:06.634Z,21.33
2019-04-26T05:22:56.650Z,20.57
2019-04-26T05:26:00.271Z,18.73
2019-04-26T05:28:47.561Z,20.02
2019-04-26T05:31:52.752Z,21.80
2019-04-26T05:35:01.135Z,26.55
2019-04-26T05:37:55.133Z,26.60
2019-04-26T05:40:51.594Z,26.05
2019-04-26T05:43:58.064Z,23.83
2019-04-26T05:47:04.532Z,26.27
2019-04-26T05:50:24.454Z,25.72
2019-04-26T05:53:24.576Z,27.37
2019-04-26T05:56:09.297Z,28.27
2019-04-26T05:58:58.402Z,27.98
2019-04-26T06:02:07.182Z,30.67
2019-04-26T06:05:08.948Z,29.65
2019-04-26T06:07:56.608Z,30.15
2019-04-26T06:10:32.788Z,29.70
2019-04-26T06:13:19.411Z,28.70
2019-04-26T06:16:26.057Z,29.12
2019-04-26T06:19:21.650Z,28.62
2019-04-26T06:22:00.062Z,28.52
2019-04-26T06:25:20.065Z,29.27
2019-04-26T06:28:08.109Z,27.75
2019-04-26T06:30:45.884Z,27.52
2019-04-26T06:33:21.918Z,29.12
2019-04-26T06:35:59.347Z,28.50
2019-04-26T06:39:02.145Z,27.42
2019-04-26T06:42:05.831Z,27.13
2019-04-26T06:45:02.988Z,28.23
2019-04-26T06:47:50.723Z,25.12
2019-04-26T06:50:35.597Z,24.32
2019-04-26T06:53:09.585Z,23.20
2019-04-26T06:56:00.927Z,23.15
2019-04-26T06:58:37.136Z,21.20
2019-04-26T07:01:42.161Z,21.37
2019-04-26T07:04:19.653Z,18.85
2019-04-26T07:07:13.438Z,20.05
2019-04-26T07:10:02.295Z,19.02
2019-04-26T07:12:46.219Z,18.17
2019-04-26T07:15:34.064Z,17.98
2019-04-26T07:18:10.789Z,19.67
2019-04-26T07:21:29.307Z,18.35
2019-04-26T07:24:09.781Z,17.02
2019-04-26T07:26:56.435Z,19.20
2019-04-26T07:29:44.124Z,18.42
2019-04-26T07:32:56.795Z,18.77
2019-04-26T07:35:31.351Z,17.50
2019-04-26T07:38:18.065Z,19.12
2019-04-26T07:41:16.703Z,17.85
2019-04-26T07:44:23.436Z,17.30
2019-04-26T07:47:10.844Z,17.85
2019-04-26T07:50:11.511Z,16.77
2019-04-26T07:52:56.905Z,16.75
2019-04-26T07:55:45.054Z,19.40
2019-04-26T07:58:42.756Z,19.17
2019-04-26T08:01:27.377Z,18.85
2019-04-26T08:04:13.958Z,18.87
2019-04-26T08:06:57.324Z,18.37
2019-04-26T08:09:34.578Z,19.12
2019-04-26T08:12:10.003Z,17.37
2019-04-26T08:14:49.646Z,19.82
2019-04-26T08:17:34.800Z,18.82
2019-04-26T08:20:37.359Z,18.42
2019-04-26T08:23:28.202Z,18.45
2019-04-26T08:25:54.328Z,17.73
2019-04-26T08:28:30.551Z,17.07
2019-04-26T08:31:07.323Z,17.02
2019-04-26T08:33:48.621Z,16.52
2019-04-26T08:36:23.163Z,15.70
2019-04-26T08:38:57.075Z,16.02
2019-04-26T08:41:35.178Z,16.27
2019-04-26T08:44:23.385Z,15.35
2019-04-26T08:47:19.840Z,15.72
2019-04-26T08:50:20.930Z,15.30
2019-04-26T08:52:59.626Z,16.55
2019-04-26T08:55:51.659Z,14.93
2019-04-26T08:58:26.609Z,15.23
2019-04-26T09:01:13.711Z,15.05
2019-04-26T09:03:50.988Z,14.98
2019-04-26T09:06:29.652Z,14.93
2019-04-26T09:09:04.385Z,15.00
2019-04-26T09:11:37.159Z,15.70
2019-04-26T09:14:09.027Z,14.80
2019-04-26T09:16:50.188Z,14.28
2019-04-26T09:19:14.917Z,14.68
2019-04-26T09:21:51.820Z,14.47
2019-04-26T09:24:39.299Z,14.23
2019-04-26T09:27:25.920Z,14.28
2019-04-26T09:30:05.136Z,13.48
2019-04-26T09:32:41.056Z,13.93
2019-04-26T09:35:15.318Z,14.58
2019-04-26T09:37:45.032Z,14.60
2019-04-26T09:40:21.726Z,14.85
2019-04-26T09:43:04.119Z,16.15
2019-04-26T09:45:42.094Z,15.28
2019-04-26T09:48:14.573Z,15.48
2019-04-26T09:50:47.529Z,15.43
2019-04-26T09:53:22.227Z,16.80
2019-04-26T09:55:56.810Z,15.55
2019-04-26T09:58:32.271Z,15.93
2019-04-26T10:01:06.570Z,16.07
2019-04-26T10:03:37.166Z,16.00
2019-04-26T10:06:08.250Z,16.50
2019-04-26T10:08:43.251Z,15.63
2019-04-26T10:11:19.699Z,17.95
2019-04-26T10:13:54.771Z,16.77
2019-04-26T10:16:33.535Z,16.65
2019-04-26T10:19:06.815Z,17.00
2019-04-26T10:21:37.653Z,17.17
2019-04-26T10:24:08.431Z,17.60
2019-04-26T10:26:42.531Z,16.20
2019-04-26T10:29:12.886Z,16.90
2019-04-26T10:31:47.635Z,16.65
2019-04-26T10:34:19.418Z,16.77
2019-04-26T10:36:50.335Z,16.67
2019-04-26T10:39:23.445Z,16.25
2019-04-26T10:41:55.023Z,17.07
2019-04-26T10:44:44.074Z,16.95
2019-04-26T10:47:15.838Z,16.70
2019-04-26T10:49:54.446Z,18.10
2019-04-26T10:52:29.397Z,18.40
2019-04-26T10:55:06.652Z,18.27
2019-04-26T10:57:58.250Z,19.48
2019-04-26T11:00:33.016Z,17.57
2019-04-26T11:03:08.467Z,17.37
2019-04-26T11:05:38.958Z,18.23
2019-04-26T11:08:12.582Z,18.02
2019-04-26T11:10:48.776Z,17.92
2019-04-26T11:13:19.036Z,17.70
2019-04-26T11:15:57.334Z,18.27
2019-04-26T11:18:28.635Z,18.67
2019-04-26T11:21:01.510Z,18.77
2019-04-26T11:23:33.149Z,18.30
2019-04-26T11:26:23.371Z,18.05
2019-04-26T11:28:55.663Z,20.15
2019-04-26T11:31:31.042Z,17.55
2019-04-26T11:34:05.342Z,17.87
2019-04-26T11:36:37.538Z,18.10
2019-04-26T11:39:11.756Z,17.82
2019-04-26T11:41:43.684Z,17.37
2019-04-26T11:44:15.118Z,17.55
2019-04-26T11:46:49.326Z,17.98
2019-04-26T11:49:22.685Z,18.25
2019-04-26T11:51:58.587Z,19.57
2019-04-26T11:54:31.901Z,19.27
2019-04-26T11:57:08.213Z,19.23
2019-04-26T11:59:38.645Z,18.55
2019-04-26T12:02:12.319Z,18.77
2019-04-26T12:05:03.024Z,17.75
2019-04-26T12:07:37.085Z,17.02
2019-04-26T12:10:11.235Z,16.52
2019-04-26T12:12:47.084Z,16.62
2019-04-26T12:15:29.668Z,15.75
2019-04-26T12:17:58.865Z,16.35
2019-04-26T12:20:37.205Z,17.57
2019-04-26T12:23:08.970Z,17.25
2019-04-26T12:25:43.686Z,16.05
2019-04-26T12:28:30.173Z,15.60
2019-04-26T12:31:01.823Z,16.60
2019-04-26T12:33:39.037Z,15.98
2019-04-26T12:36:12.848Z,16.73
2019-04-26T12:38:47.636Z,17.20
2019-04-26T12:41:22.201Z,16.17
2019-04-26T12:43:58.891Z,16.02
2019-04-26T12:46:32.134Z,15.53
2019-04-26T12:49:04.141Z,15.20
2019-04-26T12:51:54.252Z,15.25
2019-04-26T12:54:33.836Z,15.58
2019-04-26T12:57:21.466Z,14.80
2019-04-26T13:00:01.769Z,14.87
2019-04-26T13:02:39.818Z,14.95
2019-04-26T13:05:14.556Z,15.10
2019-04-26T13:08:04.647Z,14.35
2019-04-26T13:10:45.375Z,14.47
2019-04-26T13:13:20.577Z,14.15
2019-04-26T13:16:01.214Z,14.53
2019-04-26T13:18:34.887Z,14.83
2019-04-26T13:21:12.324Z,14.78
2019-04-26T13:23:49.494Z,13.93
2019-04-26T13:26:38.559Z,13.05
2019-04-26T13:29:12.925Z,13.13
2019-04-26T13:31:51.140Z,13.35
2019-04-26T13:34:27.041Z,13.62
2019-04-26T13:36:59.152Z,13.90
2019-04-26T13:39:29.530Z,13.62
2019-04-26T13:42:04.560Z,13.83
2019-04-26T13:44:52.117Z,14.45
2019-04-26T13:47:40.887Z,14.25
2019-04-26T13:50:15.856Z,14.55
2019-04-26T13:52:46.379Z,14.20
2019-04-26T13:55:16.877Z,15.95
2019-04-26T13:57:47.950Z,13.65
2019-04-26T14:00:22.648Z,13.70
2019-04-26T14:02:58.447Z,14.33
2019-04-26T14:05:28.833Z,13.78
2019-04-26T14:08:04.627Z,14.53
2019-04-26T14:10:40.893Z,14.53
2019-04-26T14:13:15.995Z,13.60
2019-04-26T14:15:48.674Z,13.90
2019-04-26T14:18:39.123Z,13.45
2019-04-26T14:21:33.193Z,12.98
2019-04-26T14:24:25.492Z,13.10
2019-04-26T14:27:15.128Z,13.45
2019-04-26T14:29:47.887Z,13.77
2019-04-26T14:32:22.879Z,13.10
2019-04-26T14:34:53.762Z,12.95
2019-04-26T14:37:27.052Z,12.82
2019-04-26T14:40:10.631Z,13.05
2019-04-26T14:42:42.476Z,13.20
2019-04-26T14:45:27.949Z,13.22
2019-04-26T14:48:00.172Z,12.88
2019-04-26T14:50:32.063Z,12.75
2019-04-26T14:53:03.604Z,12.00
2019-04-26T14:55:42.347Z,13.20
2019-04-26T14:58:12.757Z,12.37
2019-04-26T15:00:51.462Z,13.28
2019-04-26T15:03:26.637Z,12.98
2019-04-26T15:06:16.726Z,12.20
2019-04-26T15:08:50.303Z,12.43
2019-04-26T15:11:22.796Z,12.90
2019-04-26T15:14:06.335Z,11.65
2019-04-26T15:16:37.232Z,11.40
2019-04-26T15:19:09.944Z,11.40
2019-04-26T15:21:47.368Z,11.57
2019-04-26T15:24:42.975Z,12.05
2019-04-26T15:27:19.587Z,12.00
2019-04-26T15:29:57.250Z,12.18
2019-04-26T15:32:28.035Z,11.53
2019-04-26T15:35:01.757Z,11.80
2019-04-26T15:37:32.330Z,13.20
2019-04-26T15:40:06.987Z,12.47
2019-04-26T15:43:02.543Z,11.80
2019-04-26T15:46:04.251Z,12.45
2019-04-26T15:48:56.113Z,13.10
2019-04-26T15:51:35.171Z,12.20
2019-04-26T15:54:13.984Z,12.40
2019-04-26T15:56:53.757Z,12.43
2019-04-26T15:59:25.751Z,12.30
2019-04-26T16:01:58.032Z,12.58
2019-04-26T16:04:28.587Z,14.05
2019-04-26T16:06:58.967Z,13.75
2019-04-26T16:09:32.272Z,13.78
2019-04-26T16:12:10.363Z,13.98
2019-04-26T16:14:38.124Z,13.13
2019-04-26T16:17:15.423Z,13.18
2019-04-26T16:19:45.892Z,12.98
2019-04-26T16:22:18.753Z,13.35
2019-04-26T16:24:51.266Z,13.78
2019-04-26T16:27:24.616Z,13.05
2019-04-26T16:29:59.664Z,14.40
2019-04-26T16:32:52.689Z,12.63
2019-04-26T16:35:33.742Z,12.82
2019-04-26T16:38:29.593Z,12.88
2019-04-26T16:41:03.270Z,14.28
2019-04-26T16:43:40.502Z,14.20
2019-04-26T16:46:20.645Z,13.85
2019-04-26T16:48:50.393Z,13.85
2019-04-26T16:51:39.543Z,13.53
2019-04-26T16:54:11.040Z,14.45
2019-04-26T16:56:50.035Z,14.40
2019-04-26T16:59:23.866Z,14.40
2019-04-26T17:02:24.797Z,13.97
2019-04-26T17:04:45.026Z,13.47
2019-04-26T17:07:39.540Z,13.70
2019-04-26T17:10:20.790Z,14.60
2019-04-26T17:12:54.363Z,13.40
2019-04-26T17:15:25.752Z,12.70
2019-04-26T17:18:02.562Z,14.10
2019-04-26T17:20:34.442Z,13.10
2019-04-26T17:23:30.126Z,13.70
2019-04-26T17:26:37.676Z,14.03
2019-04-26T17:29:13.030Z,13.57
2019-04-26T17:32:02.456Z,13.77
2019-04-26T17:34:34.378Z,13.80
2019-04-26T17:37:11.700Z,13.67
2019-04-26T17:39:47.511Z,13.93
2019-04-26T17:42:17.334Z,14.87
2019-04-26T17:45:03.969Z,15.15
2019-04-26T17:47:37.502Z,13.03
2019-04-26T17:50:20.586Z,14.43
2019-04-26T17:52:51.818Z,13.87
2019-04-26T17:55:45.803Z,13.90
2019-04-26T17:58:22.808Z,15.13
2019-04-26T18:00:51.502Z,15.00
2019-04-26T18:03:23.489Z,16.57
2019-04-26T18:05:59.378Z,18.70
2019-04-26T18:08:38.666Z,19.10
2019-04-26T18:11:19.705Z,24.20
2019-04-26T18:13:51.201Z,18.10
2019-04-26T18:16:29.001Z,16.27
2019-04-26T18:19:07.053Z,19.70
2019-04-26T18:21:59.598Z,17.47
2019-04-26T18:24:35.008Z,18.07
2019-04-26T18:27:07.139Z,18.90
2019-04-26T18:29:38.991Z,18.07
2019-04-26T18:32:15.791Z,17.47
2019-04-26T18:34:49.196Z,19.00
2019-04-26T18:37:29.284Z,18.23
2019-04-26T18:40:07.552Z,17.80
2019-04-26T18:42:53.076Z,19.32
2019-04-26T18:45:30.304Z,18.33
2019-04-26T18:48:01.948Z,18.60
2019-04-26T18:50:46.008Z,18.53
2019-04-26T18:53:19.721Z,17.83
2019-04-26T18:55:54.515Z,18.57
2019-04-26T18:58:34.779Z,19.87
2019-04-26T19:01:13.606Z,17.33
2019-04-26T19:03:45.378Z,15.77
2019-04-26T19:06:28.801Z,16.07
2019-04-26T19:08:52.278Z,17.10
2019-04-26T19:11:24.133Z,19.00
2019-04-26T19:13:59.138Z,19.83
2019-04-26T19:16:31.939Z,17.90
2019-04-26T19:19:22.722Z,17.80
2019-04-26T19:22:09.399Z,19.23
2019-04-26T19:24:39.817Z,18.30
2019-04-26T19:27:10.260Z,16.97
2019-04-26T19:29:44.644Z,16.63
2019-04-26T19:32:21.223Z,15.80
2019-04-26T19:34:52.458Z,15.53
2019-04-26T19:37:23.424Z,16.30
2019-04-26T19:39:53.838Z,16.82
2019-04-26T19:42:27.121Z,14.53
2019-04-26T19:45:13.397Z,14.70
2019-04-26T19:47:29.914Z,14.27
2019-04-26T19:50:09.761Z,13.37
2019-04-26T19:52:42.511Z,13.23
2019-04-26T19:55:31.758Z,13.53
2019-04-26T19:58:04.070Z,13.00
2019-04-26T20:00:34.513Z,13.93
2019-04-26T20:03:08.505Z,12.03
2019-04-26T20:05:40.639Z,12.60
2019-04-26T20:08:09.133Z,14.03
2019-04-26T20:10:40.629Z,12.70
2019-04-26T20:13:15.042Z,14.03
2019-04-26T20:15:43.799Z,13.90
2019-04-26T20:18:17.151Z,12.90
2019-04-26T20:20:46.321Z,14.07
2019-04-26T20:23:19.318Z,16.17
2019-04-26T20:25:48.915Z,13.97
2019-04-26T20:28:20.630Z,12.47
2019-04-26T20:30:52.623Z,12.27
2019-04-26T20:33:26.613Z,13.07
2019-04-26T20:36:01.448Z,11.80
2019-04-26T20:38:35.859Z,11.87
2019-04-26T20:41:01.801Z,11.07
2019-04-26T20:43:36.282Z,10.90
2019-04-26T20:46:14.448Z,10.30
2019-04-26T20:48:37.388Z,9.63
2019-04-26T20:51:10.981Z,10.37
2019-04-26T20:53:41.760Z,11.83
2019-04-26T20:56:18.425Z,9.80
2019-04-26T20:58:47.073Z,9.67
2019-04-26T21:01:17.818Z,9.77
2019-04-26T21:03:48.160Z,9.17
2019-04-26T21:06:18.597Z,8.80
2019-04-26T21:08:48.993Z,9.07
2019-04-26T21:11:19.574Z,8.90
2019-04-26T21:13:51.783Z,7.97
2019-04-26T21:16:22.157Z,8.17
2019-04-26T21:18:52.636Z,8.87
2019-04-26T21:21:23.117Z,9.20
2019-04-26T21:23:53.486Z,8.23
2019-04-26T21:26:27.409Z,8.80
2019-04-26T21:28:59.377Z,8.30
2019-04-26T21:31:36.433Z,9.07
2019-04-26T21:34:12.529Z,8.57
2019-04-26T21:36:48.002Z,8.67
2019-04-26T21:39:33.867Z,8.35
2019-04-26T21:42:05.847Z,8.13
2019-04-26T21:44:37.002Z,8.03
2019-04-26T21:47:07.624Z,8.00
2019-04-26T21:49:38.167Z,8.47
2019-04-26T21:52:30.152Z,8.57
2019-04-26T21:55:00.584Z,8.00
2019-04-26T21:57:31.892Z,7.03
2019-04-26T22:00:04.157Z,7.70
2019-04-26T22:02:37.388Z,8.23
2019-04-26T22:05:08.119Z,10.20
2019-04-26T22:07:43.759Z,8.43
2019-04-26T22:10:23.468Z,7.77
2019-04-26T22:12:54.001Z,7.00
2019-04-26T22:15:29.550Z,8.00
2019-04-26T22:18:05.865Z,7.13
2019-04-26T22:20:38.097Z,6.90
2019-04-26T22:23:21.389Z,7.60
2019-04-26T22:25:54.058Z,6.43
2019-04-26T22:28:26.847Z,6.67
2019-04-26T22:30:59.254Z,5.47
2019-04-26T22:33:30.811Z,6.20
2019-04-26T22:36:01.268Z,5.73
2019-04-26T22:38:39.222Z,6.30
2019-04-26T22:41:10.398Z,6.60
2019-04-26T22:43:49.588Z,5.90
2019-04-26T22:46:44.427Z,7.07
2019-04-26T22:49:06.054Z,6.07
2019-04-26T22:51:37.297Z,6.50
2019-04-26T22:54:08.192Z,6.27
2019-04-26T22:56:38.564Z,6.00
2019-04-26T22:59:09.013Z,5.33
2019-04-26T23:01:44.689Z,5.67
2019-04-26T23:04:15.724Z,6.10
2019-04-26T23:06:47.003Z,5.43
2019-04-26T23:09:27.539Z,5.57
2019-04-26T23:12:09.638Z,5.03
2019-04-26T23:14:59.928Z,5.90
2019-04-26T23:17:34.752Z,8.37
2019-04-26T23:20:23.398Z,6.28
2019-04-26T23:23:00.430Z,5.40
2019-04-26T23:25:31.361Z,5.10
2019-04-26T23:28:03.639Z,5.20
2019-04-26T23:30:34.245Z,5.57
2019-04-26T23:33:04.892Z,5.60
2019-04-26T23:35:43.080Z,6.67
2019-04-26T23:38:10.543Z,6.13
2019-04-26T23:40:42.948Z,6.37
2019-04-26T23:43:13.215Z,7.37
2019-04-26T23:45:48.359Z,7.10
2019-04-26T23:48:15.756Z,6.50
2019-04-26T23:50:46.201Z,7.70
2019-04-26T23:53:20.148Z,7.77
2019-04-26T23:55:48.514Z,7.10
2019-04-26T23:58:18.968Z,7.87
